sensor_id;sensor_type;location;lat;lon;timestamp;temperature;humidity
72604;DHT22;60645;56.968;24.196;2023-05-06T00:01:57;0.90;61.50
72604;DHT22;60645;56.968;24.196;2023-05-06T00:04:23;0.90;61.50
72604;DHT22;60645;56.968;24.196;2023-05-06T00:06:50;0.80;61.80
72604;DHT22;60645;56.968;24.196;2023-05-06T00:09:18;0.80;62.30
72604;DHT22;60645;56.968;24.196;2023-05-06T00:11:45;0.80;62.60
72604;DHT22;60645;56.968;24.196;2023-05-06T00:14:13;0.90;62.70
72604;DHT22;60645;56.968;24.196;2023-05-06T00:16:39;0.80;63.00
72604;DHT22;60645;56.968;24.196;2023-05-06T00:19:06;0.90;62.80
72604;DHT22;60645;56.968;24.196;2023-05-06T00:21:33;0.90;63.10
72604;DHT22;60645;56.968;24.196;2023-05-06T00:24:00;0.80;63.30
72604;DHT22;60645;56.968;24.196;2023-05-06T00:26:26;1.00;63.00
72604;DHT22;60645;56.968;24.196;2023-05-06T00:28:53;0.80;63.30
72604;DHT22;60645;56.968;24.196;2023-05-06T00:31:20;0.90;63.30
72604;DHT22;60645;56.968;24.196;2023-05-06T00:33:47;0.90;63.80
72604;DHT22;60645;56.968;24.196;2023-05-06T00:36:13;0.70;64.10
72604;DHT22;60645;56.968;24.196;2023-05-06T00:38:40;0.60;65.10
72604;DHT22;60645;56.968;24.196;2023-05-06T00:41:07;0.50;64.50
72604;DHT22;60645;56.968;24.196;2023-05-06T00:43:34;0.50;65.10
72604;DHT22;60645;56.968;24.196;2023-05-06T00:46:00;0.50;64.70
72604;DHT22;60645;56.968;24.196;2023-05-06T00:48:27;0.60;65.20
72604;DHT22;60645;56.968;24.196;2023-05-06T00:50:54;0.50;64.80
72604;DHT22;60645;56.968;24.196;2023-05-06T00:53:21;0.50;64.40
72604;DHT22;60645;56.968;24.196;2023-05-06T00:55:48;0.60;64.70
72604;DHT22;60645;56.968;24.196;2023-05-06T00:58:15;0.40;64.90
72604;DHT22;60645;56.968;24.196;2023-05-06T01:00:42;0.40;65.40
72604;DHT22;60645;56.968;24.196;2023-05-06T01:03:10;0.50;65.00
72604;DHT22;60645;56.968;24.196;2023-05-06T01:08:31;0.30;64.70
72604;DHT22;60645;56.968;24.196;2023-05-06T01:11:13;0.40;65.10
72604;DHT22;60645;56.968;24.196;2023-05-06T01:16:09;0.30;65.60
72604;DHT22;60645;56.968;24.196;2023-05-06T01:18:38;0.10;65.40
72604;DHT22;60645;56.968;24.196;2023-05-06T01:21:05;0.30;65.20
72604;DHT22;60645;56.968;24.196;2023-05-06T01:23:48;0.00;65.50
72604;DHT22;60645;56.968;24.196;2023-05-06T01:26:15;0.40;64.80
72604;DHT22;60645;56.968;24.196;2023-05-06T01:28:42;0.30;65.10
72604;DHT22;60645;56.968;24.196;2023-05-06T01:31:11;0.20;64.50
72604;DHT22;60645;56.968;24.196;2023-05-06T01:36:07;0.10;64.50
72604;DHT22;60645;56.968;24.196;2023-05-06T01:41:04;0.10;65.40
72604;DHT22;60645;56.968;24.196;2023-05-06T01:43:34;0.00;66.10
72604;DHT22;60645;56.968;24.196;2023-05-06T01:46:03;0.00;66.80
72604;DHT22;60645;56.968;24.196;2023-05-06T01:48:31;-0.10;66.40
72604;DHT22;60645;56.968;24.196;2023-05-06T01:50:59;0.00;67.40
72604;DHT22;60645;56.968;24.196;2023-05-06T01:53:26;-0.10;67.00
72604;DHT22;60645;56.968;24.196;2023-05-06T01:55:52;0.00;67.40
72604;DHT22;60645;56.968;24.196;2023-05-06T01:58:19;0.00;66.30
72604;DHT22;60645;56.968;24.196;2023-05-06T02:00:46;0.00;68.00
72604;DHT22;60645;56.968;24.196;2023-05-06T02:03:13;0.00;68.00
72604;DHT22;60645;56.968;24.196;2023-05-06T02:05:40;0.00;66.70
72604;DHT22;60645;56.968;24.196;2023-05-06T02:08:06;-0.10;66.00
72604;DHT22;60645;56.968;24.196;2023-05-06T02:10:33;-0.10;66.10
72604;DHT22;60645;56.968;24.196;2023-05-06T02:13:00;0.00;67.00
72604;DHT22;60645;56.968;24.196;2023-05-06T02:15:27;-0.10;66.70
72604;DHT22;60645;56.968;24.196;2023-05-06T02:17:53;-0.10;66.80
72604;DHT22;60645;56.968;24.196;2023-05-06T02:20:20;0.10;66.90
72604;DHT22;60645;56.968;24.196;2023-05-06T02:22:47;0.00;66.20
72604;DHT22;60645;56.968;24.196;2023-05-06T02:25:13;-0.10;67.00
72604;DHT22;60645;56.968;24.196;2023-05-06T02:27:40;-0.10;66.60
72604;DHT22;60645;56.968;24.196;2023-05-06T02:30:07;-0.10;66.50
72604;DHT22;60645;56.968;24.196;2023-05-06T02:32:34;0.00;67.00
72604;DHT22;60645;56.968;24.196;2023-05-06T02:35:01;0.00;66.70
72604;DHT22;60645;56.968;24.196;2023-05-06T02:37:28;0.00;66.70
72604;DHT22;60645;56.968;24.196;2023-05-06T02:39:55;0.00;66.80
72604;DHT22;60645;56.968;24.196;2023-05-06T02:42:22;0.00;66.10
72604;DHT22;60645;56.968;24.196;2023-05-06T02:44:48;0.00;66.10
72604;DHT22;60645;56.968;24.196;2023-05-06T02:47:15;0.30;65.30
72604;DHT22;60645;56.968;24.196;2023-05-06T02:49:42;0.30;64.90
72604;DHT22;60645;56.968;24.196;2023-05-06T02:52:08;0.80;63.70
72604;DHT22;60645;56.968;24.196;2023-05-06T02:54:35;0.70;63.10
72604;DHT22;60645;56.968;24.196;2023-05-06T02:57:02;0.90;63.50
72604;DHT22;60645;56.968;24.196;2023-05-06T02:59:29;1.00;62.70
72604;DHT22;60645;56.968;24.196;2023-05-06T03:01:55;1.30;60.90
72604;DHT22;60645;56.968;24.196;2023-05-06T03:04:22;1.60;60.40
72604;DHT22;60645;56.968;24.196;2023-05-06T03:06:49;1.40;59.90
72604;DHT22;60645;56.968;24.196;2023-05-06T03:09:16;1.40;60.00
72604;DHT22;60645;56.968;24.196;2023-05-06T03:11:42;1.40;60.10
72604;DHT22;60645;56.968;24.196;2023-05-06T03:14:09;1.80;59.80
72604;DHT22;60645;56.968;24.196;2023-05-06T03:16:36;2.00;59.30
72604;DHT22;60645;56.968;24.196;2023-05-06T03:19:03;2.30;57.30
72604;DHT22;60645;56.968;24.196;2023-05-06T03:21:30;2.70;56.20
72604;DHT22;60645;56.968;24.196;2023-05-06T03:23:57;3.40;55.10
72604;DHT22;60645;56.968;24.196;2023-05-06T03:26:24;3.80;53.70
72604;DHT22;60645;56.968;24.196;2023-05-06T03:28:51;4.60;51.90
72604;DHT22;60645;56.968;24.196;2023-05-06T03:31:17;5.30;50.20
72604;DHT22;60645;56.968;24.196;2023-05-06T03:33:44;5.70;49.10
72604;DHT22;60645;56.968;24.196;2023-05-06T03:36:11;5.70;48.70
72604;DHT22;60645;56.968;24.196;2023-05-06T03:38:41;6.00;48.20
72604;DHT22;60645;56.968;24.196;2023-05-06T03:41:07;5.80;48.00
72604;DHT22;60645;56.968;24.196;2023-05-06T03:43:34;6.00;47.90
72604;DHT22;60645;56.968;24.196;2023-05-06T03:46:01;6.00;47.40
72604;DHT22;60645;56.968;24.196;2023-05-06T03:48:28;5.90;48.10
72604;DHT22;60645;56.968;24.196;2023-05-06T03:50:55;5.70;48.00
72604;DHT22;60645;56.968;24.196;2023-05-06T03:53:22;5.60;48.70
72604;DHT22;60645;56.968;24.196;2023-05-06T03:55:48;5.70;48.50
72604;DHT22;60645;56.968;24.196;2023-05-06T03:58:15;5.60;49.70
72604;DHT22;60645;56.968;24.196;2023-05-06T04:00:42;6.10;47.80
72604;DHT22;60645;56.968;24.196;2023-05-06T04:03:09;5.90;48.50
72604;DHT22;60645;56.968;24.196;2023-05-06T04:05:36;6.10;47.80
72604;DHT22;60645;56.968;24.196;2023-05-06T04:08:03;6.00;48.40
72604;DHT22;60645;56.968;24.196;2023-05-06T04:10:30;6.50;47.70
72604;DHT22;60645;56.968;24.196;2023-05-06T04:12:57;6.50;46.90
72604;DHT22;60645;56.968;24.196;2023-05-06T04:15:23;6.70;47.00
72604;DHT22;60645;56.968;24.196;2023-05-06T04:17:50;6.70;47.90
72604;DHT22;60645;56.968;24.196;2023-05-06T04:20:17;6.90;46.60
72604;DHT22;60645;56.968;24.196;2023-05-06T04:22:44;6.90;46.80
72604;DHT22;60645;56.968;24.196;2023-05-06T04:25:10;7.30;46.10
72604;DHT22;60645;56.968;24.196;2023-05-06T04:27:38;7.40;45.30
72604;DHT22;60645;56.968;24.196;2023-05-06T04:30:04;7.60;45.40
72604;DHT22;60645;56.968;24.196;2023-05-06T04:32:31;7.40;45.70
72604;DHT22;60645;56.968;24.196;2023-05-06T04:34:59;8.10;44.90
72604;DHT22;60645;56.968;24.196;2023-05-06T04:37:26;8.40;43.50
72604;DHT22;60645;56.968;24.196;2023-05-06T04:39:53;8.40;44.80
72604;DHT22;60645;56.968;24.196;2023-05-06T04:42:21;8.30;44.20
72604;DHT22;60645;56.968;24.196;2023-05-06T04:44:48;8.70;43.60
72604;DHT22;60645;56.968;24.196;2023-05-06T04:47:14;9.00;42.80
72604;DHT22;60645;56.968;24.196;2023-05-06T04:49:41;9.00;42.70
72604;DHT22;60645;56.968;24.196;2023-05-06T04:52:08;8.90;42.80
72604;DHT22;60645;56.968;24.196;2023-05-06T04:54:35;9.00;42.50
72604;DHT22;60645;56.968;24.196;2023-05-06T04:57:02;9.50;41.60
72604;DHT22;60645;56.968;24.196;2023-05-06T04:59:28;9.70;41.10
72604;DHT22;60645;56.968;24.196;2023-05-06T05:01:55;9.40;42.00
72604;DHT22;60645;56.968;24.196;2023-05-06T05:04:22;9.50;41.10
72604;DHT22;60645;56.968;24.196;2023-05-06T05:06:49;9.30;42.00
72604;DHT22;60645;56.968;24.196;2023-05-06T05:09:15;9.50;41.40
72604;DHT22;60645;56.968;24.196;2023-05-06T05:11:42;9.50;41.50
72604;DHT22;60645;56.968;24.196;2023-05-06T05:14:09;9.90;40.90
72604;DHT22;60645;56.968;24.196;2023-05-06T05:16:36;10.10;40.80
72604;DHT22;60645;56.968;24.196;2023-05-06T05:19:03;10.60;40.10
72604;DHT22;60645;56.968;24.196;2023-05-06T05:21:32;10.50;40.00
72604;DHT22;60645;56.968;24.196;2023-05-06T05:23:59;10.30;39.90
72604;DHT22;60645;56.968;24.196;2023-05-06T05:26:25;10.50;41.60
72604;DHT22;60645;56.968;24.196;2023-05-06T05:28:52;11.00;40.30
72604;DHT22;60645;56.968;24.196;2023-05-06T05:31:19;10.70;39.70
72604;DHT22;60645;56.968;24.196;2023-05-06T05:33:46;10.10;39.70
72604;DHT22;60645;56.968;24.196;2023-05-06T05:36:12;10.20;39.80
72604;DHT22;60645;56.968;24.196;2023-05-06T05:38:40;10.00;40.30
72604;DHT22;60645;56.968;24.196;2023-05-06T05:41:07;10.00;39.60
72604;DHT22;60645;56.968;24.196;2023-05-06T05:46:10;10.40;38.90
72604;DHT22;60645;56.968;24.196;2023-05-06T05:48:37;10.70;39.00
72604;DHT22;60645;56.968;24.196;2023-05-06T05:51:05;10.90;38.60
72604;DHT22;60645;56.968;24.196;2023-05-06T05:53:32;10.70;39.00
72604;DHT22;60645;56.968;24.196;2023-05-06T05:55:58;10.90;39.30
72604;DHT22;60645;56.968;24.196;2023-05-06T05:58:25;12.10;38.40
72604;DHT22;60645;56.968;24.196;2023-05-06T06:00:52;11.80;37.60
72604;DHT22;60645;56.968;24.196;2023-05-06T06:03:18;11.20;37.80
72604;DHT22;60645;56.968;24.196;2023-05-06T06:05:45;11.50;37.70
72604;DHT22;60645;56.968;24.196;2023-05-06T06:08:16;11.20;38.20
72604;DHT22;60645;56.968;24.196;2023-05-06T06:10:43;12.00;37.60
72604;DHT22;60645;56.968;24.196;2023-05-06T06:13:12;12.10;36.70
72604;DHT22;60645;56.968;24.196;2023-05-06T06:15:39;11.80;37.50
72604;DHT22;60645;56.968;24.196;2023-05-06T06:18:06;11.50;37.00
72604;DHT22;60645;56.968;24.196;2023-05-06T06:20:36;11.70;37.00
72604;DHT22;60645;56.968;24.196;2023-05-06T06:23:02;11.80;36.50
72604;DHT22;60645;56.968;24.196;2023-05-06T06:25:29;12.30;36.10
72604;DHT22;60645;56.968;24.196;2023-05-06T06:27:56;12.60;36.20
72604;DHT22;60645;56.968;24.196;2023-05-06T06:30:23;12.80;35.90
72604;DHT22;60645;56.968;24.196;2023-05-06T06:32:51;13.30;35.40
72604;DHT22;60645;56.968;24.196;2023-05-06T06:35:18;13.40;35.10
72604;DHT22;60645;56.968;24.196;2023-05-06T06:37:49;13.10;34.90
72604;DHT22;60645;56.968;24.196;2023-05-06T06:40:15;13.50;34.50
72604;DHT22;60645;56.968;24.196;2023-05-06T06:42:42;13.70;34.60
72604;DHT22;60645;56.968;24.196;2023-05-06T06:45:09;13.40;34.80
72604;DHT22;60645;56.968;24.196;2023-05-06T06:47:36;13.30;34.50
72604;DHT22;60645;56.968;24.196;2023-05-06T06:50:03;13.60;34.20
72604;DHT22;60645;56.968;24.196;2023-05-06T06:52:30;14.30;34.20
72604;DHT22;60645;56.968;24.196;2023-05-06T06:54:57;14.70;33.90
72604;DHT22;60645;56.968;24.196;2023-05-06T06:57:24;14.80;33.50
72604;DHT22;60645;56.968;24.196;2023-05-06T06:59:50;14.50;34.00
72604;DHT22;60645;56.968;24.196;2023-05-06T07:02:19;14.60;32.90
72604;DHT22;60645;56.968;24.196;2023-05-06T07:04:46;14.80;32.40
72604;DHT22;60645;56.968;24.196;2023-05-06T07:07:13;14.20;32.30
72604;DHT22;60645;56.968;24.196;2023-05-06T07:09:40;14.50;32.10
72604;DHT22;60645;56.968;24.196;2023-05-06T07:12:07;14.00;33.80
72604;DHT22;60645;56.968;24.196;2023-05-06T07:14:33;14.20;32.90
72604;DHT22;60645;56.968;24.196;2023-05-06T07:17:00;13.80;33.00
72604;DHT22;60645;56.968;24.196;2023-05-06T07:19:27;14.00;32.90
72604;DHT22;60645;56.968;24.196;2023-05-06T07:21:54;13.90;33.20
72604;DHT22;60645;56.968;24.196;2023-05-06T07:24:22;14.20;33.00
72604;DHT22;60645;56.968;24.196;2023-05-06T07:26:49;14.60;33.30
72604;DHT22;60645;56.968;24.196;2023-05-06T07:29:15;15.00;32.10
72604;DHT22;60645;56.968;24.196;2023-05-06T07:31:42;15.00;32.20
72604;DHT22;60645;56.968;24.196;2023-05-06T07:34:09;15.10;32.40
72604;DHT22;60645;56.968;24.196;2023-05-06T07:36:36;15.60;30.90
72604;DHT22;60645;56.968;24.196;2023-05-06T07:39:06;15.40;31.00
72604;DHT22;60645;56.968;24.196;2023-05-06T07:41:33;15.00;31.10
72604;DHT22;60645;56.968;24.196;2023-05-06T07:44:00;14.40;32.00
72604;DHT22;60645;56.968;24.196;2023-05-06T07:46:27;14.80;31.90
72604;DHT22;60645;56.968;24.196;2023-05-06T07:48:53;15.10;31.50
72604;DHT22;60645;56.968;24.196;2023-05-06T07:51:20;14.60;31.60
72604;DHT22;60645;56.968;24.196;2023-05-06T07:53:47;14.80;31.40
72604;DHT22;60645;56.968;24.196;2023-05-06T07:56:14;15.20;31.30
72604;DHT22;60645;56.968;24.196;2023-05-06T07:58:41;15.50;30.40
72604;DHT22;60645;56.968;24.196;2023-05-06T08:01:07;15.60;30.40
72604;DHT22;60645;56.968;24.196;2023-05-06T08:03:34;16.30;30.60
72604;DHT22;60645;56.968;24.196;2023-05-06T08:06:01;16.60;30.40
72604;DHT22;60645;56.968;24.196;2023-05-06T08:08:28;16.70;30.30
72604;DHT22;60645;56.968;24.196;2023-05-06T08:10:56;15.90;30.60
72604;DHT22;60645;56.968;24.196;2023-05-06T08:13:23;15.90;30.40
72604;DHT22;60645;56.968;24.196;2023-05-06T08:15:50;16.50;30.90
72604;DHT22;60645;56.968;24.196;2023-05-06T08:18:17;16.60;29.90
72604;DHT22;60645;56.968;24.196;2023-05-06T08:20:48;15.80;30.20
72604;DHT22;60645;56.968;24.196;2023-05-06T08:23:15;15.80;30.40
72604;DHT22;60645;56.968;24.196;2023-05-06T08:25:42;15.40;31.00
72604;DHT22;60645;56.968;24.196;2023-05-06T08:28:09;16.10;30.50
72604;DHT22;60645;56.968;24.196;2023-05-06T08:30:36;16.20;30.00
72604;DHT22;60645;56.968;24.196;2023-05-06T08:33:02;16.20;30.50
72604;DHT22;60645;56.968;24.196;2023-05-06T08:35:29;16.10;30.10
72604;DHT22;60645;56.968;24.196;2023-05-06T08:37:56;16.60;30.30
72604;DHT22;60645;56.968;24.196;2023-05-06T08:40:23;16.70;29.20
72604;DHT22;60645;56.968;24.196;2023-05-06T08:42:51;16.90;29.30
72604;DHT22;60645;56.968;24.196;2023-05-06T08:45:21;17.40;28.80
72604;DHT22;60645;56.968;24.196;2023-05-06T08:47:48;17.50;29.10
72604;DHT22;60645;56.968;24.196;2023-05-06T08:50:14;16.70;29.60
72604;DHT22;60645;56.968;24.196;2023-05-06T08:52:42;16.40;29.70
72604;DHT22;60645;56.968;24.196;2023-05-06T08:55:09;15.70;29.90
72604;DHT22;60645;56.968;24.196;2023-05-06T08:57:36;16.30;30.30
72604;DHT22;60645;56.968;24.196;2023-05-06T09:00:03;17.00;30.40
72604;DHT22;60645;56.968;24.196;2023-05-06T09:02:30;17.40;29.10
72604;DHT22;60645;56.968;24.196;2023-05-06T09:04:57;17.50;28.90
72604;DHT22;60645;56.968;24.196;2023-05-06T09:07:25;17.50;29.20
72604;DHT22;60645;56.968;24.196;2023-05-06T09:09:52;17.10;28.80
72604;DHT22;60645;56.968;24.196;2023-05-06T09:12:19;16.00;29.10
72604;DHT22;60645;56.968;24.196;2023-05-06T09:14:48;16.30;29.20
72604;DHT22;60645;56.968;24.196;2023-05-06T09:17:18;16.90;29.00
72604;DHT22;60645;56.968;24.196;2023-05-06T09:19:50;17.00;29.00
72604;DHT22;60645;56.968;24.196;2023-05-06T09:22:20;18.00;29.00
72604;DHT22;60645;56.968;24.196;2023-05-06T09:24:48;19.10;27.70
72604;DHT22;60645;56.968;24.196;2023-05-06T09:27:25;19.10;27.80
72604;DHT22;60645;56.968;24.196;2023-05-06T09:29:59;18.30;27.80
72604;DHT22;60645;56.968;24.196;2023-05-06T09:32:27;18.20;28.00
72604;DHT22;60645;56.968;24.196;2023-05-06T09:34:56;18.70;28.30
72604;DHT22;60645;56.968;24.196;2023-05-06T09:37:23;18.70;28.40
72604;DHT22;60645;56.968;24.196;2023-05-06T09:39:52;19.10;27.90
72604;DHT22;60645;56.968;24.196;2023-05-06T09:42:20;19.10;27.80
72604;DHT22;60645;56.968;24.196;2023-05-06T09:44:47;18.90;27.90
72604;DHT22;60645;56.968;24.196;2023-05-06T09:47:14;19.60;27.30
72604;DHT22;60645;56.968;24.196;2023-05-06T09:49:41;19.50;27.40
72604;DHT22;60645;56.968;24.196;2023-05-06T09:52:08;19.00;28.00
72604;DHT22;60645;56.968;24.196;2023-05-06T09:54:35;18.80;28.00
72604;DHT22;60645;56.968;24.196;2023-05-06T09:57:02;19.40;27.60
72604;DHT22;60645;56.968;24.196;2023-05-06T09:59:30;18.70;27.50
72604;DHT22;60645;56.968;24.196;2023-05-06T10:01:57;18.80;27.80
72604;DHT22;60645;56.968;24.196;2023-05-06T10:04:25;18.10;28.10
72604;DHT22;60645;56.968;24.196;2023-05-06T10:06:53;18.90;27.70
72604;DHT22;60645;56.968;24.196;2023-05-06T10:09:23;18.90;27.70
72604;DHT22;60645;56.968;24.196;2023-05-06T10:11:50;18.20;27.70
72604;DHT22;60645;56.968;24.196;2023-05-06T10:14:18;19.30;27.40
72604;DHT22;60645;56.968;24.196;2023-05-06T10:16:46;19.80;27.30
72604;DHT22;60645;56.968;24.196;2023-05-06T10:19:15;20.60;26.70
72604;DHT22;60645;56.968;24.196;2023-05-06T10:21:44;20.20;27.30
72604;DHT22;60645;56.968;24.196;2023-05-06T10:24:15;19.20;27.30
72604;DHT22;60645;56.968;24.196;2023-05-06T10:26:44;18.70;27.80
72604;DHT22;60645;56.968;24.196;2023-05-06T10:29:14;18.70;28.20
72604;DHT22;60645;56.968;24.196;2023-05-06T10:31:45;18.70;27.40
72604;DHT22;60645;56.968;24.196;2023-05-06T10:34:13;18.60;28.30
72604;DHT22;60645;56.968;24.196;2023-05-06T10:36:41;19.60;26.90
72604;DHT22;60645;56.968;24.196;2023-05-06T10:39:09;20.40;26.80
72604;DHT22;60645;56.968;24.196;2023-05-06T10:41:36;21.20;26.50
72604;DHT22;60645;56.968;24.196;2023-05-06T10:44:03;21.40;26.10
72604;DHT22;60645;56.968;24.196;2023-05-06T10:46:31;20.90;26.60
72604;DHT22;60645;56.968;24.196;2023-05-06T10:49:18;20.90;26.50
72604;DHT22;60645;56.968;24.196;2023-05-06T10:51:46;21.60;25.90
72604;DHT22;60645;56.968;24.196;2023-05-06T10:59:10;22.80;25.50
72604;DHT22;60645;56.968;24.196;2023-05-06T11:01:38;22.40;25.90
72604;DHT22;60645;56.968;24.196;2023-05-06T11:04:17;21.30;25.90
72604;DHT22;60645;56.968;24.196;2023-05-06T11:06:45;22.30;25.70
72604;DHT22;60645;56.968;24.196;2023-05-06T11:09:22;22.60;25.70
72604;DHT22;60645;56.968;24.196;2023-05-06T11:11:59;23.30;25.40
72604;DHT22;60645;56.968;24.196;2023-05-06T11:14:31;23.30;25.40
72604;DHT22;60645;56.968;24.196;2023-05-06T11:16:58;22.60;25.40
72604;DHT22;60645;56.968;24.196;2023-05-06T11:19:26;21.50;26.40
72604;DHT22;60645;56.968;24.196;2023-05-06T11:21:54;21.70;26.00
72604;DHT22;60645;56.968;24.196;2023-05-06T11:26:49;22.00;27.30
72604;DHT22;60645;56.968;24.196;2023-05-06T11:29:16;22.70;26.70
72604;DHT22;60645;56.968;24.196;2023-05-06T11:31:44;22.80;26.80
72604;DHT22;60645;56.968;24.196;2023-05-06T11:34:12;23.00;27.60
72604;DHT22;60645;56.968;24.196;2023-05-06T11:36:50;23.20;27.30
72604;DHT22;60645;56.968;24.196;2023-05-06T11:39:17;23.30;27.60
72604;DHT22;60645;56.968;24.196;2023-05-06T11:41:44;24.00;27.40
72604;DHT22;60645;56.968;24.196;2023-05-06T11:44:10;24.50;27.10
72604;DHT22;60645;56.968;24.196;2023-05-06T11:46:39;24.60;27.20
72604;DHT22;60645;56.968;24.196;2023-05-06T11:49:12;24.40;27.20
72604;DHT22;60645;56.968;24.196;2023-05-06T11:51:39;24.10;27.40
72604;DHT22;60645;56.968;24.196;2023-05-06T11:54:06;22.80;27.80
72604;DHT22;60645;56.968;24.196;2023-05-06T11:56:50;21.50;28.70
72604;DHT22;60645;56.968;24.196;2023-05-06T11:59:17;21.40;28.60
72604;DHT22;60645;56.968;24.196;2023-05-06T12:01:51;21.40;28.80
72604;DHT22;60645;56.968;24.196;2023-05-06T12:04:18;22.00;28.60
72604;DHT22;60645;56.968;24.196;2023-05-06T12:06:44;22.80;28.30
72604;DHT22;60645;56.968;24.196;2023-05-06T12:09:11;22.90;28.20
72604;DHT22;60645;56.968;24.196;2023-05-06T12:11:38;23.10;28.20
72604;DHT22;60645;56.968;24.196;2023-05-06T12:14:09;23.20;28.10
72604;DHT22;60645;56.968;24.196;2023-05-06T12:16:36;23.40;28.00
72604;DHT22;60645;56.968;24.196;2023-05-06T12:19:03;23.40;28.10
72604;DHT22;60645;56.968;24.196;2023-05-06T12:21:31;23.10;28.10
72604;DHT22;60645;56.968;24.196;2023-05-06T12:23:59;23.20;28.10
72604;DHT22;60645;56.968;24.196;2023-05-06T12:26:26;23.50;27.90
72604;DHT22;60645;56.968;24.196;2023-05-06T12:29:06;23.50;27.80
72604;DHT22;60645;56.968;24.196;2023-05-06T12:31:33;23.40;27.90
72604;DHT22;60645;56.968;24.196;2023-05-06T12:34:00;23.50;27.50
72604;DHT22;60645;56.968;24.196;2023-05-06T12:36:28;22.90;27.90
72604;DHT22;60645;56.968;24.196;2023-05-06T12:38:58;22.30;28.60
72604;DHT22;60645;56.968;24.196;2023-05-06T12:41:42;21.90;28.30
72604;DHT22;60645;56.968;24.196;2023-05-06T12:44:31;21.30;28.70
72604;DHT22;60645;56.968;24.196;2023-05-06T12:47:01;21.30;28.80
72604;DHT22;60645;56.968;24.196;2023-05-06T12:52:13;21.60;28.90
72604;DHT22;60645;56.968;24.196;2023-05-06T12:54:40;21.10;28.90
72604;DHT22;60645;56.968;24.196;2023-05-06T12:57:07;21.30;29.20
72604;DHT22;60645;56.968;24.196;2023-05-06T12:59:34;21.10;29.10
72604;DHT22;60645;56.968;24.196;2023-05-06T13:02:02;20.40;29.60
72604;DHT22;60645;56.968;24.196;2023-05-06T13:04:29;21.00;29.00
72604;DHT22;60645;56.968;24.196;2023-05-06T13:06:56;20.80;29.30
72604;DHT22;60645;56.968;24.196;2023-05-06T13:09:23;18.60;31.00
72604;DHT22;60645;56.968;24.196;2023-05-06T13:11:50;15.50;33.70
72604;DHT22;60645;56.968;24.196;2023-05-06T13:14:17;13.40;36.40
72604;DHT22;60645;56.968;24.196;2023-05-06T13:16:44;12.10;38.30
72604;DHT22;60645;56.968;24.196;2023-05-06T13:19:11;11.20;39.20
72604;DHT22;60645;56.968;24.196;2023-05-06T13:21:56;10.80;39.80
72604;DHT22;60645;56.968;24.196;2023-05-06T13:24:24;10.30;40.10
72604;DHT22;60645;56.968;24.196;2023-05-06T13:26:51;10.20;41.00
72604;DHT22;60645;56.968;24.196;2023-05-06T13:29:17;9.80;41.30
72604;DHT22;60645;56.968;24.196;2023-05-06T13:31:44;9.80;41.30
72604;DHT22;60645;56.968;24.196;2023-05-06T13:34:11;9.80;41.20
72604;DHT22;60645;56.968;24.196;2023-05-06T13:36:38;9.90;41.70
72604;DHT22;60645;56.968;24.196;2023-05-06T13:39:05;10.00;42.00
72604;DHT22;60645;56.968;24.196;2023-05-06T13:41:31;9.70;41.90
72604;DHT22;60645;56.968;24.196;2023-05-06T13:43:58;9.50;42.50
72604;DHT22;60645;56.968;24.196;2023-05-06T13:46:25;9.40;42.90
72604;DHT22;60645;56.968;24.196;2023-05-06T13:48:55;9.50;42.70
72604;DHT22;60645;56.968;24.196;2023-05-06T13:51:21;9.40;43.10
72604;DHT22;60645;56.968;24.196;2023-05-06T13:53:49;9.50;43.00
72604;DHT22;60645;56.968;24.196;2023-05-06T13:56:20;9.50;42.70
72604;DHT22;60645;56.968;24.196;2023-05-06T13:58:47;9.50;42.50
72604;DHT22;60645;56.968;24.196;2023-05-06T14:01:13;9.30;42.70
72604;DHT22;60645;56.968;24.196;2023-05-06T14:03:40;9.20;43.20
72604;DHT22;60645;56.968;24.196;2023-05-06T14:06:07;9.10;43.80
72604;DHT22;60645;56.968;24.196;2023-05-06T14:08:34;9.20;43.80
72604;DHT22;60645;56.968;24.196;2023-05-06T14:11:01;9.20;43.20
72604;DHT22;60645;56.968;24.196;2023-05-06T14:13:29;9.20;43.70
72604;DHT22;60645;56.968;24.196;2023-05-06T14:15:56;9.30;44.10
72604;DHT22;60645;56.968;24.196;2023-05-06T14:18:23;9.20;43.80
72604;DHT22;60645;56.968;24.196;2023-05-06T14:20:52;9.20;43.90
72604;DHT22;60645;56.968;24.196;2023-05-06T14:23:19;8.90;44.40
72604;DHT22;60645;56.968;24.196;2023-05-06T14:25:45;8.90;44.80
72604;DHT22;60645;56.968;24.196;2023-05-06T14:28:12;8.70;45.00
72604;DHT22;60645;56.968;24.196;2023-05-06T14:30:40;8.70;45.40
72604;DHT22;60645;56.968;24.196;2023-05-06T14:33:07;8.70;45.30
72604;DHT22;60645;56.968;24.196;2023-05-06T14:35:34;8.90;45.10
72604;DHT22;60645;56.968;24.196;2023-05-06T14:38:01;8.90;45.60
72604;DHT22;60645;56.968;24.196;2023-05-06T14:40:28;8.90;45.90
72604;DHT22;60645;56.968;24.196;2023-05-06T14:42:55;8.60;46.30
72604;DHT22;60645;56.968;24.196;2023-05-06T14:45:22;8.60;46.20
72604;DHT22;60645;56.968;24.196;2023-05-06T14:47:49;8.80;46.30
72604;DHT22;60645;56.968;24.196;2023-05-06T14:50:17;8.70;46.30
72604;DHT22;60645;56.968;24.196;2023-05-06T14:52:44;8.50;46.90
72604;DHT22;60645;56.968;24.196;2023-05-06T14:55:11;8.60;46.80
72604;DHT22;60645;56.968;24.196;2023-05-06T14:57:38;8.40;47.00
72604;DHT22;60645;56.968;24.196;2023-05-06T15:00:05;8.30;46.60
72604;DHT22;60645;56.968;24.196;2023-05-06T15:02:35;8.30;46.00
72604;DHT22;60645;56.968;24.196;2023-05-06T15:05:03;8.30;45.80
72604;DHT22;60645;56.968;24.196;2023-05-06T15:07:30;8.30;45.70
72604;DHT22;60645;56.968;24.196;2023-05-06T15:09:57;8.30;46.00
72604;DHT22;60645;56.968;24.196;2023-05-06T15:12:24;8.20;45.90
72604;DHT22;60645;56.968;24.196;2023-05-06T15:14:51;8.30;46.50
72604;DHT22;60645;56.968;24.196;2023-05-06T15:17:18;8.40;46.90
72604;DHT22;60645;56.968;24.196;2023-05-06T15:19:45;8.40;47.00
72604;DHT22;60645;56.968;24.196;2023-05-06T15:22:12;8.40;46.90
72604;DHT22;60645;56.968;24.196;2023-05-06T15:24:38;8.30;46.90
72604;DHT22;60645;56.968;24.196;2023-05-06T15:27:05;8.40;47.20
72604;DHT22;60645;56.968;24.196;2023-05-06T15:29:32;8.30;47.70
72604;DHT22;60645;56.968;24.196;2023-05-06T15:31:59;8.30;47.40
72604;DHT22;60645;56.968;24.196;2023-05-06T15:34:26;8.20;47.20
72604;DHT22;60645;56.968;24.196;2023-05-06T15:36:53;8.30;47.30
72604;DHT22;60645;56.968;24.196;2023-05-06T15:39:20;8.20;47.60
72604;DHT22;60645;56.968;24.196;2023-05-06T15:41:47;8.20;47.60
72604;DHT22;60645;56.968;24.196;2023-05-06T15:44:16;8.20;47.40
72604;DHT22;60645;56.968;24.196;2023-05-06T15:46:46;8.10;47.80
72604;DHT22;60645;56.968;24.196;2023-05-06T15:49:13;8.20;48.10